Time;durP1;ratioP1;P1;durP2;ratioP2;P2;SDS_P1;SDS_P2;PMS_P1;PMS_P2;Temp;Humidity;BMP_temperature;BMP_pressure;BME280_temperature;BME280_humidity;BME280_pressure;Samples;Min_cycle;Max_cycle;Signal;HPM_P1;HPM_P2
2022/11/11 00:01:11;;;;;;;4.07;3.40;;;;;;;7.34;100.00;101753.59;5065825;28;20454;-58
2022/11/11 00:03:38;;;;;;;2.30;2.20;;;;;;;7.38;100.00;101760.69;5064860;28;20450;-57
2022/11/11 00:06:09;;;;;;;3.97;3.70;;;;;;;7.38;100.00;101758.94;5058961;28;20469;-58
2022/11/11 00:08:35;;;;;;;3.60;3.40;;;;;;;7.46;100.00;101761.66;5057980;28;20504;-57
2022/11/11 00:11:05;;;;;;;3.77;3.37;;;;;;;7.48;100.00;101756.38;5062963;28;20466;-57
2022/11/11 00:13:33;;;;;;;8.20;3.33;;;;;;;7.57;100.00;101761.75;5063693;28;20453;-58
2022/11/11 00:16:19;;;;;;;6.03;3.70;;;;;;;7.55;100.00;101761.72;5058799;28;20894;-58
2022/11/11 00:27:11;;;;;;;11.33;3.57;;;;;;;7.73;100.00;101755.66;5058320;28;20852;-57
2022/11/11 00:29:39;;;;;;;12.70;4.73;;;;;;;7.78;100.00;101750.41;5056312;28;20458;-57
2022/11/11 00:32:22;;;;;;;9.00;3.87;;;;;;;7.80;100.00;101746.88;5062643;28;20451;-58
2022/11/11 00:37:35;;;;;;;18.33;3.60;;;;;;;7.86;100.00;101756.63;5064321;28;20470;-57
2022/11/11 00:40:02;;;;;;;3.23;3.03;;;;;;;7.95;100.00;101762.00;5064189;28;20484;-57
2022/11/11 00:42:29;;;;;;;6.70;3.50;;;;;;;8.04;100.00;101767.31;5051042;28;20501;-57
2022/11/11 00:44:55;;;;;;;3.90;2.70;;;;;;;8.00;100.00;101769.09;5063489;28;20459;-57
2022/11/11 00:53:03;;;;;;;3.60;3.30;;;;;;;8.02;100.00;101769.97;5063757;28;20462;-58
2022/11/11 00:55:29;;;;;;;6.33;3.30;;;;;;;8.02;100.00;101774.38;5063553;28;20504;-57
2022/11/11 00:57:56;;;;;;;5.13;4.33;;;;;;;8.01;100.00;101767.31;5057125;28;20527;-57
2022/11/11 01:00:22;;;;;;;4.57;3.13;;;;;;;7.99;100.00;101772.59;5056511;28;20458;-57
2022/11/11 01:02:49;;;;;;;3.47;3.10;;;;;;;8.07;100.00;101774.41;5063096;28;20866;-57
2022/11/11 01:05:15;;;;;;;10.73;3.07;;;;;;;8.09;100.00;101778.84;5063614;28;20446;-57
2022/11/11 01:07:42;;;;;;;4.07;3.63;;;;;;;8.09;100.00;101777.97;5057112;28;20808;-57
2022/11/11 01:10:10;;;;;;;3.50;3.00;;;;;;;8.12;100.00;101783.28;5056579;28;20455;-57
2022/11/11 01:12:36;;;;;;;11.20;5.43;;;;;;;8.10;100.00;101777.09;5062711;28;20454;-57
2022/11/11 01:15:03;;;;;;;5.63;3.63;;;;;;;8.14;100.00;101778.88;5062319;28;20627;-58
2022/11/11 01:17:29;;;;;;;12.63;4.20;;;;;;;8.26;100.00;101786.88;5056864;28;20481;-57
2022/11/11 01:19:56;;;;;;;7.03;5.60;;;;;;;8.26;100.00;101782.47;5056335;28;20546;-57
2022/11/11 01:22:22;;;;;;;5.47;1.90;;;;;;;8.23;100.00;101777.16;5062526;28;20864;-57
2022/11/11 01:24:49;;;;;;;3.30;2.67;;;;;;;8.28;100.00;101783.34;5063019;28;20553;-57
2022/11/11 01:27:15;;;;;;;5.73;5.13;;;;;;;8.32;100.00;101785.13;5056670;28;20474;-57
2022/11/11 01:29:41;;;;;;;6.47;3.37;;;;;;;8.37;100.00;101785.22;5056589;28;20461;-58
2022/11/11 01:32:08;;;;;;;4.17;3.73;;;;;;;8.42;100.00;101786.09;5062169;28;20538;-57
2022/11/11 01:34:34;;;;;;;12.73;4.07;;;;;;;8.48;100.00;101780.81;5062702;28;20850;-57
2022/11/11 01:37:01;;;;;;;14.30;3.63;;;;;;;8.45;100.00;101777.28;5057633;28;20476;-58
2022/11/11 01:39:27;;;;;;;8.93;4.27;;;;;;;8.46;100.00;101779.94;5055866;28;20512;-58
2022/11/11 01:41:54;;;;;;;6.47;4.70;;;;;;;8.53;100.00;101778.19;5060154;28;20458;-57
2022/11/11 01:44:53;;;;;;;3.70;2.60;;;;;;;8.58;100.00;101769.38;5062890;28;20859;-57
2022/11/11 01:47:21;;;;;;;6.10;2.70;;;;;;;8.54;100.00;101761.41;5055819;28;20486;-58
2022/11/11 01:49:56;;;;;;;2.97;2.67;;;;;;;8.56;100.00;101757.00;5062060;28;20461;-58
2022/11/11 01:52:29;;;;;;;16.83;5.17;;;;;;;8.51;100.00;101745.50;5062154;28;20465;-57
2022/11/11 01:55:12;;;;;;;5.67;5.17;;;;;;;8.51;100.00;101734.91;5059106;28;20601;-57
2022/11/11 01:57:47;;;;;;;5.43;4.30;;;;;;;8.49;100.00;101729.59;5055681;28;20470;-57
2022/11/11 02:00:17;;;;;;;13.93;4.27;;;;;;;8.53;100.00;101743.75;5056082;28;20496;-58
2022/11/11 02:02:53;;;;;;;4.23;3.10;;;;;;;8.58;100.00;101760.53;5061431;28;20545;-57
2022/11/11 02:08:11;;;;;;;9.70;4.27;;;;;;;8.72;100.00;101756.16;5061051;28;20450;-57
2022/11/11 02:10:41;;;;;;;4.77;3.23;;;;;;;8.58;100.00;101756.13;5055855;28;20455;-57
2022/11/11 02:15:59;;;;;;;1.87;1.63;;;;;;;9.11;100.00;101775.69;5048493;28;20498;-57
2022/11/11 02:18:27;;;;;;;1.70;1.60;;;;;;;9.08;100.00;101773.94;5053932;28;20545;-58
2022/11/11 02:20:53;;;;;;;12.30;3.47;;;;;;;8.85;100.00;101767.69;5058435;28;21019;-59
2022/11/11 02:23:42;;;;;;;5.33;2.93;;;;;;;8.53;100.00;101763.19;5062551;28;20512;-58
2022/11/11 02:26:11;;;;;;;1.70;1.60;;;;;;;8.42;100.00;101759.59;5062154;28;20519;-57
2022/11/11 02:28:38;;;;;;;7.00;3.43;;;;;;;8.40;100.00;101750.78;5056239;28;20454;-58
2022/11/11 02:31:05;;;;;;;5.43;3.43;;;;;;;8.40;100.00;101765.78;5055594;28;20541;-58
2022/11/11 02:33:31;;;;;;;3.93;3.23;;;;;;;8.52;100.00;101750.81;5061009;28;20450;-58
2022/11/11 02:35:59;;;;;;;3.50;2.50;;;;;;;8.40;100.00;101763.13;5063753;28;20494;-58
2022/11/11 02:38:27;;;;;;;3.20;2.33;;;;;;;8.31;100.00;101758.63;5060688;28;20985;-58
2022/11/11 02:43:41;;;;;;;3.30;3.07;;;;;;;8.43;100.00;101756.06;5063392;28;20445;-58
2022/11/11 02:46:07;;;;;;;14.33;3.87;;;;;;;8.48;100.00;101764.91;5059104;28;20469;-58
2022/11/11 02:48:34;;;;;;;5.10;3.50;;;;;;;8.38;100.00;101768.44;5065899;28;20874;-58
2022/11/11 02:51:00;;;;;;;2.60;2.20;;;;;;;8.31;100.00;101775.41;5059481;28;20453;-57
2022/11/11 02:53:27;;;;;;;4.93;2.93;;;;;;;8.38;100.00;101772.84;5061799;28;20462;-57
2022/11/11 02:55:54;;;;;;;2.40;2.20;;;;;;;8.39;100.00;101787.84;5065631;28;21102;-58
2022/11/11 02:58:21;;;;;;;6.30;2.23;;;;;;;8.29;100.00;101786.88;5063643;28;20544;-58
2022/11/11 03:00:47;;;;;;;5.77;3.00;;;;;;;8.26;100.00;101787.75;5058907;28;20460;-59
2022/11/11 03:03:14;;;;;;;4.83;4.43;;;;;;;8.24;100.00;101786.00;5061820;28;20509;-57
2022/11/11 03:05:40;;;;;;;2.03;1.83;;;;;;;8.43;100.00;101789.63;5065872;28;20446;-58
2022/11/11 03:08:07;;;;;;;6.03;3.10;;;;;;;8.40;100.00;101795.81;5063474;28;20507;-57
2022/11/11 03:10:34;;;;;;;4.13;2.70;;;;;;;8.39;100.00;101796.69;5058741;28;20450;-58
2022/11/11 03:13:00;;;;;;;3.00;2.43;;;;;;;8.48;100.00;101801.13;5061178;28;20557;-57
2022/11/11 03:15:26;;;;;;;11.40;2.03;;;;;;;8.41;100.00;101800.22;5065471;28;20521;-57
2022/11/11 03:17:53;;;;;;;5.13;4.40;;;;;;;8.43;100.00;101803.78;5063162;28;20480;-57
2022/11/11 03:23:13;;;;;;;8.17;5.43;;;;;;;8.57;100.00;101799.41;5058616;28;20451;-58
2022/11/11 03:25:42;;;;;;;14.67;6.90;;;;;;;8.65;100.00;101801.22;5048001;28;20449;-57
2022/11/11 03:28:20;;;;;;;15.33;3.60;;;;;;;8.66;100.00;101805.63;5058425;28;20462;-58
2022/11/11 03:30:48;;;;;;;13.47;5.97;;;;;;;8.99;100.00;101804.84;5061891;28;20504;-57
2022/11/11 03:39:49;;;;;;;4.20;3.30;;;;;;;8.70;100.00;101810.06;5058398;28;20453;-58
2022/11/11 03:42:15;;;;;;;6.57;4.00;;;;;;;8.68;100.00;101830.38;5058533;28;20446;-58
2022/11/11 03:44:42;;;;;;;6.33;4.80;;;;;;;8.81;100.00;101819.81;5065264;28;20446;-58
2022/11/11 03:47:09;;;;;;;8.17;3.77;;;;;;;8.72;100.00;101824.19;5057047;28;20486;-57
2022/11/11 03:49:36;;;;;;;10.83;3.60;;;;;;;8.55;100.00;101826.78;5065062;28;20454;-57
2022/11/11 03:52:02;;;;;;;3.73;2.40;;;;;;;8.40;100.00;101834.66;5063936;28;20507;-57
2022/11/11 03:54:28;;;;;;;5.00;4.70;;;;;;;8.33;100.00;101836.34;5052385;28;20451;-58
2022/11/11 03:59:40;;;;;;;17.57;5.13;;;;;;;8.48;100.00;101827.63;5063726;28;20822;-57
2022/11/11 04:10:29;;;;;;;1.73;1.73;;;;;;;8.43;100.00;101826.72;5064577;28;20466;-58
2022/11/11 04:23:57;;;;;;;5.03;2.23;;;;;;;8.23;100.00;101839.84;5057815;28;20550;-58
2022/11/11 04:26:23;;;;;;;5.37;3.47;;;;;;;8.26;100.00;101830.16;5064045;28;20523;-58
2022/11/11 04:34:30;;;;;;;3.77;3.57;;;;;;;8.32;100.00;101850.47;5057186;28;20446;-57
2022/11/11 04:36:57;;;;;;;2.93;2.73;;;;;;;8.33;100.00;101847.84;5061942;28;20498;-58
2022/11/11 04:42:08;;;;;;;9.77;4.63;;;;;;;8.38;100.00;101844.38;5050800;28;20446;-58
2022/11/11 04:47:19;;;;;;;5.33;3.73;;;;;;;8.69;100.00;101842.75;5056809;28;20475;-59
2022/11/11 04:49:45;;;;;;;4.60;2.90;;;;;;;8.60;100.00;101844.47;5063627;28;20454;-58
2022/11/11 04:52:27;;;;;;;8.37;5.80;;;;;;;8.77;100.00;101841.00;5063532;28;20461;-58
2022/11/11 04:57:47;;;;;;;3.47;3.20;;;;;;;8.26;100.00;101837.22;5056153;28;20466;-57
2022/11/11 05:00:17;;;;;;;3.73;3.40;;;;;;;8.16;100.00;101838.91;5057124;28;20451;-57
2022/11/11 05:11:00;;;;;;;4.90;4.30;;;;;;;8.30;100.00;101847.81;5047348;28;20461;-57
2022/11/11 05:21:52;;;;;;;3.37;2.97;;;;;;;8.35;100.00;101857.59;5056347;28;20450;-57
2022/11/11 05:27:03;;;;;;;3.20;2.47;;;;;;;8.20;100.00;101851.28;5043966;28;20515;-58
2022/11/11 05:29:29;;;;;;;3.53;3.23;;;;;;;8.41;100.00;101852.34;5056218;28;20454;-58
2022/11/11 05:31:56;;;;;;;4.37;3.57;;;;;;;8.35;100.00;101862.88;5062364;28;20461;-58
2022/11/11 05:34:22;;;;;;;2.73;2.53;;;;;;;8.11;100.00;101858.31;5062934;28;20454;-58
2022/11/11 05:36:49;;;;;;;6.90;2.97;;;;;;;8.13;100.00;101857.44;5057315;28;21059;-57
2022/11/11 05:39:15;;;;;;;4.90;2.57;;;;;;;7.99;100.00;101854.69;5055736;28;20868;-58
2022/11/11 05:41:41;;;;;;;3.13;2.83;;;;;;;7.95;100.00;101847.59;5062132;28;20480;-57
2022/11/11 05:44:08;;;;;;;1.53;1.43;;;;;;;8.11;100.00;101848.59;5062789;28;20450;-58
2022/11/11 05:46:34;;;;;;;3.60;2.50;;;;;;;8.33;100.00;101847.84;5056264;28;20515;-57
2022/11/11 05:49:14;;;;;;;1.90;1.43;;;;;;;8.31;100.00;101852.25;5061201;28;20856;-58
2022/11/11 05:51:41;;;;;;;3.50;3.30;;;;;;;8.13;100.00;101857.44;5059046;28;20452;-57
2022/11/11 05:54:07;;;;;;;2.00;1.57;;;;;;;8.19;100.00;101861.88;5055384;28;20457;-57
2022/11/11 05:56:34;;;;;;;4.40;3.17;;;;;;;7.85;100.00;101864.28;5059185;28;20620;-58
2022/11/11 05:59:00;;;;;;;3.03;2.77;;;;;;;7.82;100.00;101866.03;5062554;28;20458;-57
2022/11/11 06:01:27;;;;;;;1.80;1.43;;;;;;;7.69;100.00;101870.34;5059236;28;20958;-57
2022/11/11 06:03:53;;;;;;;1.27;1.17;;;;;;;7.72;100.00;101870.34;5055457;28;20465;-58
2022/11/11 06:06:19;;;;;;;2.23;1.80;;;;;;;7.84;100.00;101864.28;5057226;28;20882;-59
2022/11/11 06:08:46;;;;;;;3.27;2.23;;;;;;;7.85;100.00;101863.41;5062432;28;20483;-58
2022/11/11 06:11:12;;;;;;;12.00;2.70;;;;;;;7.85;100.00;101858.13;5057548;28;20450;-57
2022/11/11 06:13:38;;;;;;;2.67;1.97;;;;;;;7.78;100.00;101866.84;5055399;28;20450;-58
2022/11/11 06:16:05;;;;;;;2.40;2.30;;;;;;;7.75;100.00;101862.44;5058279;28;20505;-58
2022/11/11 06:18:32;;;;;;;7.80;1.90;;;;;;;7.71;100.00;101871.22;5062068;28;20454;-58
2022/11/11 06:20:59;;;;;;;4.20;1.40;;;;;;;7.72;100.00;101873.88;5060020;28;20511;-58
2022/11/11 06:23:27;;;;;;;6.73;4.07;;;;;;;7.64;100.00;101874.69;5055550;28;20453;-58
2022/11/11 06:26:12;;;;;;;4.30;3.20;;;;;;;7.63;100.00;101875.56;5057257;28;20451;-57
2022/11/11 06:28:44;;;;;;;2.20;2.10;;;;;;;7.70;100.00;101885.34;5044172;28;20528;-57
2022/11/11 06:31:13;;;;;;;1.97;1.83;;;;;;;7.61;100.00;101883.47;5055481;28;20455;-57
2022/11/11 06:33:40;;;;;;;1.43;1.33;;;;;;;7.51;100.00;101891.31;5059823;28;20458;-58
2022/11/11 06:36:09;;;;;;;3.23;1.70;;;;;;;7.51;100.00;101892.19;5062315;28;20983;-57
2022/11/11 06:38:35;;;;;;;1.77;1.67;;;;;;;7.67;100.00;101896.75;5058305;28;20462;-56
2022/11/11 06:41:02;;;;;;;1.73;1.63;;;;;;;7.62;100.00;101903.78;5052055;28;20527;-58
2022/11/11 06:43:29;;;;;;;1.80;1.70;;;;;;;7.52;100.00;101906.31;5058612;28;20457;-57
2022/11/11 06:45:55;;;;;;;15.23;2.57;;;;;;;7.68;100.00;101917.09;5054963;28;20451;-58
2022/11/11 06:48:26;;;;;;;1.13;1.03;;;;;;;7.56;100.00;101914.31;5062374;28;20466;-58
2022/11/11 06:50:54;;;;;;;3.00;2.80;;;;;;;7.60;100.00;101923.16;5055366;28;20445;-58
2022/11/11 06:53:22;;;;;;;1.40;1.37;;;;;;;7.55;100.00;101917.84;5058603;28;20462;-57
2022/11/11 06:55:51;;;;;;;5.60;2.30;;;;;;;7.59;100.00;101921.41;5062002;28;20959;-57
2022/11/11 06:58:19;;;;;;;3.47;0.80;;;;;;;8.08;100.00;101916.50;5059123;28;20882;-58
2022/11/11 07:00:47;;;;;;;5.03;2.23;;;;;;;7.78;100.00;101925.09;5054900;28;20511;-57
2022/11/11 07:03:15;;;;;;;4.37;1.87;;;;;;;7.80;100.00;101920.69;5057186;28;20461;-58
2022/11/11 07:05:48;;;;;;;3.43;3.03;;;;;;;7.72;100.00;101918.00;5061772;28;20443;-59
2022/11/11 07:08:18;;;;;;;3.97;3.50;;;;;;;7.78;100.00;101928.63;5061628;28;20449;-57
2022/11/11 07:10:47;;;;;;;2.77;2.53;;;;;;;7.60;100.00;101939.03;5054927;28;20449;-58
2022/11/11 07:13:15;;;;;;;3.67;3.03;;;;;;;7.79;100.00;101930.41;5055200;28;20871;-58
2022/11/11 07:15:42;;;;;;;3.07;2.87;;;;;;;7.79;100.00;101945.41;5042595;28;20453;-58
2022/11/11 07:18:09;;;;;;;1.83;1.73;;;;;;;7.65;100.00;101939.97;5054938;28;20462;-57
2022/11/11 07:20:36;;;;;;;3.00;2.20;;;;;;;7.77;100.00;101936.56;5061102;28;20962;-58
2022/11/11 07:23:03;;;;;;;2.13;1.57;;;;;;;7.86;100.00;101932.25;5064966;28;20511;-58
2022/11/11 07:25:30;;;;;;;3.07;1.60;;;;;;;7.80;100.00;101937.47;5059889;28;20829;-58
2022/11/11 07:27:57;;;;;;;1.63;1.53;;;;;;;7.83;100.00;101940.16;5058320;28;20472;-58
2022/11/11 07:30:25;;;;;;;1.87;1.77;;;;;;;7.80;100.00;101937.47;5063748;28;20459;-57
2022/11/11 07:32:52;;;;;;;1.43;1.33;;;;;;;7.92;100.00;101932.28;5065021;28;20959;-58
2022/11/11 07:35:20;;;;;;;7.07;3.13;;;;;;;7.66;100.00;101936.44;5060433;28;20449;-58
2022/11/11 07:37:47;;;;;;;2.00;1.30;;;;;;;7.83;100.00;101933.97;5058166;28;20988;-58
2022/11/11 07:40:16;;;;;;;2.77;2.57;;;;;;;7.82;100.00;101937.50;5062537;28;20457;-58
2022/11/11 07:42:42;;;;;;;3.07;2.77;;;;;;;7.87;100.00;101938.44;5054165;28;20450;-58
2022/11/11 07:45:10;;;;;;;2.73;2.53;;;;;;;7.86;100.00;101937.53;5062722;28;20524;-58
2022/11/11 07:47:37;;;;;;;2.80;2.57;;;;;;;7.88;100.00;101943.72;5058958;28;21082;-57
2022/11/11 07:50:05;;;;;;;1.90;0.80;;;;;;;7.91;100.00;101946.41;5062479;28;20855;-57
2022/11/11 07:52:35;;;;;;;3.93;1.70;;;;;;;7.93;100.00;101949.94;5064323;28;20470;-57
2022/11/11 07:55:07;;;;;;;6.93;2.80;;;;;;;7.91;100.00;101954.34;5061882;28;20452;-59
2022/11/11 07:57:33;;;;;;;1.17;0.80;;;;;;;7.92;100.00;101947.28;5058110;28;20500;-58
2022/11/11 08:00:00;;;;;;;2.13;1.60;;;;;;;7.91;100.00;101950.81;5060652;28;20454;-57
2022/11/11 08:02:28;;;;;;;1.50;1.00;;;;;;;7.83;100.00;101958.69;5064778;28;20455;-57
2022/11/11 08:04:54;;;;;;;3.27;2.97;;;;;;;7.91;100.00;101962.28;5062723;28;20503;-57
2022/11/11 08:07:22;;;;;;;3.30;1.43;;;;;;;7.97;100.00;101966.75;5058115;28;21006;-58
2022/11/11 08:09:50;;;;;;;3.43;1.10;;;;;;;8.05;100.00;101973.00;5059607;28;20455;-58
2022/11/11 08:15:02;;;;;;;1.63;1.53;;;;;;;8.31;100.00;101978.50;5064619;28;20450;-58
2022/11/11 08:17:37;;;;;;;2.50;2.13;;;;;;;8.05;100.00;101974.75;5059425;28;20982;-58
2022/11/11 08:20:05;;;;;;;3.47;3.27;;;;;;;8.06;100.00;101980.06;5057822;28;20458;-58
2022/11/11 08:22:39;;;;;;;2.40;2.20;;;;;;;8.15;100.00;101979.28;5061783;28;20513;-58
2022/11/11 08:25:08;;;;;;;2.60;2.27;;;;;;;8.01;100.00;101977.38;5064303;28;20520;-58
2022/11/11 08:27:36;;;;;;;1.20;1.10;;;;;;;7.92;100.00;101979.06;5061932;28;20863;-58
2022/11/11 08:30:05;;;;;;;2.30;1.43;;;;;;;7.92;100.00;101984.34;5057156;28;20453;-58
2022/11/11 08:32:32;;;;;;;2.40;2.20;;;;;;;8.03;100.00;101988.00;5058861;28;20455;-57
2022/11/11 08:34:58;;;;;;;1.47;1.37;;;;;;;7.91;100.00;101990.53;5063814;28;20919;-58
2022/11/11 08:37:25;;;;;;;3.90;2.80;;;;;;;8.07;100.00;101994.19;5062486;28;20505;-58
2022/11/11 08:39:51;;;;;;;2.03;0.87;;;;;;;8.06;100.00;101998.59;5056101;28;20457;-58
2022/11/11 08:42:18;;;;;;;4.50;2.60;;;;;;;8.21;100.00;101993.44;5058144;28;20793;-58
2022/11/11 08:44:45;;;;;;;1.37;1.20;;;;;;;7.66;100.00;101994.66;5063686;28;20454;-58
2022/11/11 08:47:12;;;;;;;1.37;1.13;;;;;;;7.74;100.00;101990.34;5057349;28;20478;-58
2022/11/11 08:49:38;;;;;;;2.53;1.17;;;;;;;7.81;100.00;101996.59;5063754;28;20968;-57
2022/11/11 08:52:04;;;;;;;2.13;1.93;;;;;;;7.80;100.00;101995.69;5063301;28;20883;-58
2022/11/11 08:54:32;;;;;;;1.87;1.00;;;;;;;8.03;100.00;101999.47;5057353;28;20865;-58
2022/11/11 08:56:58;;;;;;;2.87;2.17;;;;;;;8.21;100.00;102001.38;5057231;28;20491;-58
2022/11/11 08:59:24;;;;;;;1.97;1.87;;;;;;;8.37;100.00;101993.63;5063420;28;20454;-58
2022/11/11 09:01:51;;;;;;;2.07;1.77;;;;;;;8.17;100.00;101996.06;5064590;28;20446;-58
2022/11/11 09:04:17;;;;;;;1.50;1.23;;;;;;;8.40;100.00;101997.19;5043829;28;20462;-58
2022/11/11 09:07:04;;;;;;;1.67;1.13;;;;;;;8.35;100.00;101996.25;5056593;28;20536;-58
2022/11/11 09:09:31;;;;;;;1.70;1.60;;;;;;;8.12;100.00;101993.38;5060654;28;20457;-58
2022/11/11 09:11:57;;;;;;;2.77;1.83;;;;;;;8.40;100.00;101983.94;5063285;28;20455;-58
2022/11/11 09:14:24;;;;;;;2.47;2.30;;;;;;;8.47;100.00;101990.16;5059814;28;20454;-58
2022/11/11 09:16:50;;;;;;;1.90;1.80;;;;;;;8.45;100.00;101990.16;5056336;28;21063;-58
2022/11/11 09:19:16;;;;;;;1.50;1.40;;;;;;;8.68;100.00;101990.31;5060233;28;20451;-58
2022/11/11 09:21:43;;;;;;;9.20;2.47;;;;;;;8.49;100.00;101991.94;5052923;28;20454;-58
2022/11/11 09:24:09;;;;;;;3.27;2.97;;;;;;;8.60;100.00;101992.00;5059695;28;20943;-58
2022/11/11 09:26:36;;;;;;;4.63;3.53;;;;;;;8.61;100.00;101996.44;5062563;28;20474;-58
2022/11/11 09:29:02;;;;;;;1.83;1.63;;;;;;;8.61;100.00;101997.31;5059609;28;20454;-58
2022/11/11 09:31:29;;;;;;;1.73;1.63;;;;;;;8.71;100.00;101994.75;5056456;28;20477;-58
2022/11/11 09:34:10;;;;;;;2.00;1.83;;;;;;;8.63;100.00;101999.09;5057236;28;20447;-58
2022/11/11 09:36:36;;;;;;;3.57;1.10;;;;;;;8.63;100.00;101993.78;5062873;28;20531;-58
2022/11/11 09:39:03;;;;;;;2.20;0.87;;;;;;;8.67;100.00;102001.81;5061819;28;20450;-58
2022/11/11 09:41:53;;;;;;;4.20;1.87;;;;;;;8.75;100.00;101989.47;5050435;28;20450;-58
2022/11/11 09:44:40;;;;;;;1.73;1.63;;;;;;;8.84;100.00;101996.59;5062813;28;20446;-58
2022/11/11 09:47:36;;;;;;;1.87;1.77;;;;;;;8.75;100.00;101996.53;5055838;28;20899;-58
2022/11/11 09:50:09;;;;;;;1.30;1.20;;;;;;;9.29;100.00;102005.66;5048427;28;20450;-58
2022/11/11 09:52:42;;;;;;;1.00;0.83;;;;;;;9.00;100.00;102000.22;5054447;28;20586;-58
2022/11/11 09:55:11;;;;;;;3.83;1.57;;;;;;;9.30;100.00;101999.47;5057509;28;20459;-58
2022/11/11 09:57:45;;;;;;;6.20;1.73;;;;;;;8.63;100.00;101999.97;5062221;28;20498;-58
2022/11/11 10:00:26;;;;;;;2.53;1.10;;;;;;;8.58;100.00;101999.97;5062661;28;20446;-58
2022/11/11 10:03:03;;;;;;;17.53;1.10;;;;;;;8.43;100.00;101991.00;5060558;28;20480;-58
2022/11/11 10:05:46;;;;;;;1.50;1.40;;;;;;;8.61;100.00;101984.06;5062548;28;20516;-58
2022/11/11 10:08:19;;;;;;;0.83;0.70;;;;;;;8.77;100.00;101986.81;5061467;28;20446;-58
2022/11/11 10:10:47;;;;;;;1.53;1.43;;;;;;;8.77;100.00;101979.78;5062493;28;20517;-58
2022/11/11 10:13:18;;;;;;;0.90;0.83;;;;;;;9.11;100.00;101987.91;5062682;28;20458;-58
2022/11/11 10:15:48;;;;;;;1.40;1.33;;;;;;;8.91;100.00;101974.56;5055798;28;20454;-58
2022/11/11 10:18:28;;;;;;;1.53;1.43;;;;;;;8.80;100.00;101978.91;5053969;28;20495;-58
2022/11/11 10:20:55;;;;;;;2.03;1.90;;;;;;;9.17;100.00;101978.19;5059273;28;21007;-58
2022/11/11 10:23:34;;;;;;;0.97;0.97;;;;;;;9.08;100.00;101974.63;5061810;28;20951;-58
2022/11/11 10:26:06;;;;;;;2.00;1.60;;;;;;;9.14;100.00;101969.34;5061223;28;20466;-58
2022/11/11 10:28:36;;;;;;;0.90;0.90;;;;;;;9.07;100.00;101976.41;5055269;28;20445;-58
2022/11/11 10:31:10;;;;;;;2.10;2.00;;;;;;;9.15;100.00;101972.00;5055153;28;20458;-58
2022/11/11 10:33:55;;;;;;;1.37;0.90;;;;;;;9.08;100.00;101966.69;5044807;28;20445;-58
2022/11/11 10:36:25;;;;;;;1.07;0.97;;;;;;;9.38;100.00;101969.44;5055309;28;20470;-58
2022/11/11 10:39:03;;;;;;;5.53;1.80;;;;;;;8.86;100.00;101974.50;5057583;28;21009;-58
2022/11/11 10:41:39;;;;;;;1.60;1.50;;;;;;;9.42;100.00;101963.25;5062000;28;20447;-58
2022/11/11 10:44:26;;;;;;;1.13;1.07;;;;;;;9.02;100.00;101956.03;5062239;28;20461;-58
2022/11/11 10:46:59;;;;;;;1.50;1.40;;;;;;;9.26;100.00;101963.22;5054106;28;20475;-58
2022/11/11 10:49:28;;;;;;;2.47;1.33;;;;;;;8.88;100.00;101955.94;5061978;28;20447;-58
2022/11/11 10:52:15;;;;;;;3.73;3.53;;;;;;;8.41;100.00;101951.25;5059778;28;20464;-58
2022/11/11 10:54:56;;;;;;;0.60;0.50;;;;;;;8.42;100.00;101953.03;5061209;28;20487;-58
2022/11/11 10:57:32;;;;;;;6.03;1.57;;;;;;;8.31;100.00;101950.25;5064244;28;20502;-58
2022/11/11 11:00:05;;;;;;;2.57;1.83;;;;;;;8.72;100.00;101960.28;5063707;28;20449;-58
2022/11/11 11:02:49;;;;;;;1.63;1.53;;;;;;;8.85;100.00;101956.81;5059101;28;20449;-58
2022/11/11 11:05:24;;;;;;;2.40;1.47;;;;;;;8.96;100.00;101951.59;5059066;28;20453;-58
2022/11/11 11:08:01;;;;;;;1.90;1.80;;;;;;;8.74;100.00;101960.28;5062926;28;20981;-58
2022/11/11 11:10:33;;;;;;;6.43;1.97;;;;;;;8.35;100.00;101963.56;5065560;28;20881;-58
2022/11/11 11:13:14;;;;;;;1.63;1.53;;;;;;;8.97;100.00;101961.31;5064598;28;20453;-58
2022/11/11 11:15:48;;;;;;;1.53;1.37;;;;;;;8.79;100.00;101963.88;5064869;28;20457;-58
2022/11/11 11:18:17;;;;;;;0.83;0.83;;;;;;;8.92;100.00;101956.88;5065753;28;20493;-58
2022/11/11 11:21:00;;;;;;;0.87;0.87;;;;;;;9.32;100.00;101952.59;5061414;28;20499;-58
2022/11/11 11:23:42;;;;;;;1.73;1.63;;;;;;;9.27;100.00;101943.75;5057179;28;20942;-58
2022/11/11 11:26:10;;;;;;;1.17;1.17;;;;;;;9.28;100.00;101937.56;5058904;28;20544;-58
2022/11/11 11:28:57;;;;;;;0.93;0.90;;;;;;;9.61;100.00;101942.09;5064809;28;20459;-58
2022/11/11 11:31:41;;;;;;;1.20;1.10;;;;;;;9.78;100.00;101940.34;5064012;28;20457;-58
2022/11/11 11:34:08;;;;;;;1.73;1.63;;;;;;;9.49;100.00;101938.53;5064313;28;21342;-58
2022/11/11 11:36:34;;;;;;;3.40;2.53;;;;;;;9.70;100.00;101932.34;5058143;28;20523;-58
2022/11/11 11:39:01;;;;;;;2.17;1.90;;;;;;;9.75;100.00;101927.94;5060086;28;20490;-58
2022/11/11 11:41:43;;;;;;;1.30;1.17;;;;;;;9.72;100.00;101932.34;5064935;28;20869;-58
2022/11/11 11:44:26;;;;;;;2.20;2.00;;;;;;;9.84;100.00;101931.47;5065375;28;20480;-58
2022/11/11 11:47:09;;;;;;;3.30;3.10;;;;;;;9.98;100.00;101929.72;5058329;28;20478;-58
2022/11/11 11:49:58;;;;;;;1.93;1.80;;;;;;;9.91;100.00;101928.84;5063888;28;20486;-58
2022/11/11 11:52:41;;;;;;;3.37;1.90;;;;;;;9.86;100.00;101927.94;5063660;28;20985;-58
2022/11/11 11:55:20;;;;;;;2.40;2.10;;;;;;;9.90;100.00;101935.03;5062914;28;20452;-58
2022/11/11 11:57:54;;;;;;;2.43;1.67;;;;;;;9.96;100.00;101931.50;5058305;28;20493;-58
2022/11/11 12:00:22;;;;;;;1.83;1.73;;;;;;;9.97;100.00;101930.59;5058166;28;20451;-58
2022/11/11 12:03:00;;;;;;;2.60;2.30;;;;;;;10.15;100.00;101935.94;5063039;28;20474;-58
2022/11/11 12:05:41;;;;;;;1.30;1.20;;;;;;;10.42;100.00;101932.41;5063532;28;20453;-58
2022/11/11 12:08:19;;;;;;;2.73;2.50;;;;;;;10.34;100.00;101939.50;5061500;28;20449;-57
2022/11/11 12:11:01;;;;;;;2.57;2.40;;;;;;;10.02;100.00;101934.16;5057775;28;20445;-58
2022/11/11 12:13:44;;;;;;;2.00;1.40;;;;;;;10.40;100.00;101934.16;5058165;28;20447;-58
2022/11/11 12:16:52;;;;;;;3.30;1.80;;;;;;;10.03;100.00;101930.63;5060541;28;20487;-57
2022/11/11 12:19:43;;;;;;;3.10;2.90;;;;;;;9.99;100.00;101931.47;5049089;28;20544;-58
2022/11/11 12:22:31;;;;;;;8.53;2.80;;;;;;;9.97;100.00;101935.91;5054264;28;20453;-57
2022/11/11 12:25:17;;;;;;;8.30;4.10;;;;;;;10.14;100.00;101938.56;5064650;28;20449;-57
2022/11/11 12:28:21;;;;;;;2.33;2.13;;;;;;;10.01;100.00;101938.59;5062555;28;20998;-57
2022/11/11 12:31:05;;;;;;;2.50;2.30;;;;;;;9.78;100.00;101938.56;5061462;28;20454;-57
2022/11/11 12:33:56;;;;;;;2.53;2.33;;;;;;;9.66;100.00;101929.69;5064512;28;20489;-57
2022/11/11 12:36:44;;;;;;;2.97;2.83;;;;;;;9.97;100.00;101939.47;5064246;28;20466;-58
2022/11/11 12:39:10;;;;;;;6.90;3.40;;;;;;;10.19;100.00;101928.84;5063023;28;20501;-57
2022/11/11 12:42:05;;;;;;;4.17;2.70;;;;;;;10.47;100.00;101927.94;5051980;28;20461;-57
2022/11/11 12:44:54;;;;;;;18.97;2.50;;;;;;;10.37;100.00;101921.75;5063803;28;20835;-57
2022/11/11 12:47:20;;;;;;;2.30;2.20;;;;;;;10.25;100.00;101916.47;5056983;28;20486;-58
2022/11/11 12:50:04;;;;;;;3.90;3.70;;;;;;;10.57;100.00;101916.41;5063212;28;20454;-57
2022/11/11 12:52:50;;;;;;;3.90;3.70;;;;;;;10.76;100.00;101919.91;5062762;28;20462;-57
2022/11/11 12:55:25;;;;;;;7.13;4.13;;;;;;;10.43;100.00;101934.19;5063381;28;20453;-57
2022/11/11 12:58:05;;;;;;;3.80;3.30;;;;;;;10.48;100.00;101926.19;5063793;28;20490;-57
2022/11/11 13:00:38;;;;;;;7.90;3.90;;;;;;;10.47;100.00;101929.72;5063907;28;20758;-57
2022/11/11 13:03:10;;;;;;;3.20;2.73;;;;;;;10.42;100.00;101932.41;5059872;28;20453;-58
2022/11/11 13:05:57;;;;;;;2.27;2.07;;;;;;;10.19;100.00;101932.38;5056764;28;20535;-58
2022/11/11 13:08:44;;;;;;;4.53;3.77;;;;;;;10.10;100.00;101927.06;5057252;28;20442;-57
2022/11/11 13:11:26;;;;;;;4.17;3.97;;;;;;;10.13;100.00;101931.47;5048818;28;20453;-58
2022/11/11 13:14:16;;;;;;;4.93;4.53;;;;;;;9.74;100.00;101936.81;5056699;28;20493;-57
2022/11/11 13:16:42;;;;;;;3.60;3.30;;;;;;;9.76;100.00;101937.69;5056455;28;20467;-57